createdAt,value
2022-12-09T00:00:13.349Z,13.40
2022-12-09T00:01:13.245Z,11.80
2022-12-09T00:02:13.255Z,12.80
2022-12-09T00:03:13.288Z,15.80
2022-12-09T00:04:13.549Z,14.70
2022-12-09T00:05:13.282Z,14.30
2022-12-09T00:06:13.229Z,14.10
2022-12-09T00:07:13.280Z,13.50
2022-12-09T00:08:13.169Z,13.60
2022-12-09T00:09:13.178Z,13.60
2022-12-09T00:10:13.085Z,15.50
2022-12-09T00:11:13.046Z,12.80
2022-12-09T00:12:13.152Z,14.70
2022-12-09T00:13:13.141Z,13.40
2022-12-09T00:14:13.065Z,13.10
2022-12-09T00:15:13.071Z,15.70
2022-12-09T00:16:13.335Z,13.10
2022-12-09T00:17:13.371Z,14.80
2022-12-09T00:18:13.057Z,16.60
2022-12-09T00:19:13.008Z,16.60
2022-12-09T00:20:13.201Z,13.30
2022-12-09T00:21:12.987Z,15.20
2022-12-09T00:22:12.928Z,14.80
2022-12-09T00:23:12.928Z,14.30
2022-12-09T00:24:12.908Z,16.20
2022-12-09T00:25:12.912Z,14.40
2022-12-09T00:26:12.916Z,14.50
2022-12-09T00:27:12.908Z,18.30
2022-12-09T00:28:12.877Z,17.30
2022-12-09T00:29:13.113Z,15.10
2022-12-09T00:30:13.120Z,16.60
2022-12-09T00:31:12.936Z,16.20
2022-12-09T00:32:12.916Z,16.30
2022-12-09T00:33:12.923Z,15.60
2022-12-09T00:34:12.796Z,17.70
2022-12-09T00:35:12.778Z,17.30
2022-12-09T00:36:13.097Z,15.70
2022-12-09T00:37:12.751Z,14.90
2022-12-09T00:38:12.779Z,19.50
2022-12-09T00:39:12.760Z,16.30
2022-12-09T00:40:12.981Z,18.40
2022-12-09T00:41:12.749Z,14.90
2022-12-09T00:42:12.700Z,16.50
2022-12-09T00:43:12.766Z,16.50
2022-12-09T00:44:12.719Z,18.60
2022-12-09T00:45:12.768Z,17.10
2022-12-09T00:46:12.773Z,14.90
2022-12-09T00:47:12.766Z,14.10
2022-12-09T00:48:12.705Z,17.20
2022-12-09T00:49:12.694Z,14.40
2022-12-09T00:50:12.780Z,15.00
2022-12-09T00:51:12.600Z,18.00
2022-12-09T00:52:12.580Z,15.10
2022-12-09T00:53:12.571Z,13.10
2022-12-09T00:54:12.904Z,15.10
2022-12-09T00:55:12.815Z,14.50
2022-12-09T00:56:12.531Z,14.30
2022-12-09T00:57:12.683Z,11.90
2022-12-09T00:58:12.520Z,14.40
2022-12-09T00:59:12.516Z,15.30
2022-12-09T01:00:12.651Z,19.70
2022-12-09T01:01:12.676Z,15.10
2022-12-09T01:02:12.563Z,14.20
2022-12-09T01:03:12.765Z,14.50
2022-12-09T01:04:12.721Z,12.90
2022-12-09T01:05:12.580Z,13.20
2022-12-09T01:06:12.452Z,14.10
2022-12-09T01:07:12.511Z,16.20
2022-12-09T01:08:12.478Z,14.10
2022-12-09T01:09:12.449Z,15.40
2022-12-09T01:10:12.449Z,15.30
2022-12-09T01:11:12.646Z,14.50
2022-12-09T01:12:12.372Z,13.80
2022-12-09T01:13:12.569Z,15.70
2022-12-09T01:14:12.322Z,16.60
2022-12-09T01:15:12.317Z,12.80
2022-12-09T01:16:12.373Z,14.50
2022-12-09T01:17:12.415Z,13.50
2022-12-09T01:18:12.582Z,14.40
2022-12-09T01:19:12.440Z,16.80
2022-12-09T01:20:12.546Z,15.90
2022-12-09T01:21:12.241Z,13.00
2022-12-09T01:22:12.238Z,15.70
2022-12-09T01:23:12.225Z,15.10
2022-12-09T01:24:12.539Z,16.20
2022-12-09T01:25:12.382Z,14.30
2022-12-09T01:26:12.196Z,13.10
2022-12-09T01:27:12.262Z,13.80
2022-12-09T01:28:12.163Z,14.20
2022-12-09T01:29:12.177Z,13.40
2022-12-09T01:30:12.918Z,17.20
2022-12-09T01:31:12.200Z,13.60
2022-12-09T01:32:12.501Z,13.70
2022-12-09T01:33:12.213Z,13.20
2022-12-09T01:34:12.220Z,11.90
2022-12-09T01:35:12.307Z,14.60
2022-12-09T01:36:12.367Z,14.80
2022-12-09T01:37:12.295Z,12.70
2022-12-09T01:38:12.057Z,13.60
2022-12-09T01:39:12.063Z,16.00
2022-12-09T01:40:12.327Z,13.20
2022-12-09T01:41:12.219Z,12.80
2022-12-09T01:42:12.159Z,13.90
2022-12-09T01:43:12.294Z,17.20
2022-12-09T01:44:12.373Z,16.90
2022-12-09T01:45:11.972Z,13.40
2022-12-09T01:46:12.180Z,14.50
2022-12-09T01:47:12.086Z,16.00
2022-12-09T01:48:12.251Z,13.80
2022-12-09T01:49:11.978Z,12.70
2022-12-09T01:50:12.226Z,14.60
2022-12-09T01:51:11.990Z,13.60
2022-12-09T01:52:11.899Z,13.40
2022-12-09T01:53:11.941Z,14.90
2022-12-09T01:54:12.094Z,16.40
2022-12-09T01:55:11.909Z,12.30
2022-12-09T01:56:12.003Z,13.70
2022-12-09T01:57:11.999Z,14.00
2022-12-09T01:58:11.968Z,13.30
2022-12-09T01:59:11.829Z,13.70
2022-12-09T02:00:12.504Z,12.40
2022-12-09T02:01:12.083Z,17.00
2022-12-09T02:02:12.154Z,11.60
2022-12-09T02:03:11.912Z,13.50
2022-12-09T02:04:11.871Z,12.60
2022-12-09T02:05:12.056Z,17.20
2022-12-09T02:06:12.099Z,13.60
2022-12-09T02:07:11.832Z,15.70
2022-12-09T02:08:11.824Z,14.10
2022-12-09T02:09:11.868Z,16.40
2022-12-09T02:10:11.943Z,16.20
2022-12-09T02:11:11.962Z,17.30
2022-12-09T02:12:11.961Z,14.30
2022-12-09T02:13:11.760Z,15.10
2022-12-09T02:14:11.899Z,15.10
2022-12-09T02:15:11.820Z,14.10
2022-12-09T02:16:11.995Z,14.00
2022-12-09T02:17:11.665Z,16.70
2022-12-09T02:18:12.001Z,15.80
2022-12-09T02:19:11.578Z,18.40
2022-12-09T02:20:12.103Z,18.10
2022-12-09T02:21:11.906Z,16.20
2022-12-09T02:22:11.639Z,15.50
2022-12-09T02:23:11.537Z,15.80
2022-12-09T02:24:11.668Z,21.00
2022-12-09T02:25:11.527Z,18.50
2022-12-09T02:26:11.508Z,16.50
2022-12-09T02:27:11.516Z,17.30
2022-12-09T02:28:11.746Z,16.70
2022-12-09T02:29:11.488Z,16.80
2022-12-09T02:30:12.307Z,17.50
2022-12-09T02:31:11.921Z,16.40
2022-12-09T02:32:11.580Z,15.20
2022-12-09T02:33:11.541Z,19.20
2022-12-09T02:34:11.653Z,17.90
2022-12-09T02:35:11.403Z,20.70
2022-12-09T02:36:11.562Z,14.50
2022-12-09T02:37:11.418Z,15.40
2022-12-09T02:38:11.688Z,17.10
2022-12-09T02:39:11.692Z,16.00
2022-12-09T02:40:11.645Z,16.50
2022-12-09T02:41:11.688Z,15.20
2022-12-09T02:42:11.690Z,16.80
2022-12-09T02:43:11.542Z,15.70
2022-12-09T02:44:11.309Z,16.30
2022-12-09T02:45:11.708Z,18.70
2022-12-09T02:46:11.550Z,15.80
2022-12-09T02:47:11.285Z,15.90
2022-12-09T02:48:11.432Z,16.90
2022-12-09T02:49:11.364Z,16.30
2022-12-09T02:50:11.564Z,14.50
2022-12-09T02:51:11.237Z,14.10
2022-12-09T02:52:11.243Z,13.40
2022-12-09T02:53:11.189Z,12.30
2022-12-09T02:54:11.359Z,13.60
2022-12-09T02:55:11.169Z,14.90
2022-12-09T02:56:11.552Z,12.50
2022-12-09T02:57:11.200Z,19.50
2022-12-09T02:58:11.150Z,15.40
2022-12-09T02:59:11.331Z,17.40
2022-12-09T03:00:11.487Z,17.40
2022-12-09T03:01:11.445Z,15.70
2022-12-09T03:02:11.281Z,17.50
2022-12-09T03:03:11.491Z,15.20
2022-12-09T03:04:11.479Z,12.90
2022-12-09T03:05:11.313Z,16.60
2022-12-09T03:06:11.078Z,13.80
2022-12-09T03:07:11.145Z,15.10
2022-12-09T03:08:11.112Z,14.70
2022-12-09T03:09:11.205Z,14.60
2022-12-09T03:10:11.443Z,16.40
2022-12-09T03:11:11.272Z,15.50
2022-12-09T03:12:10.990Z,15.20
2022-12-09T03:13:11.245Z,14.40
2022-12-09T03:14:11.048Z,14.80
2022-12-09T03:15:10.960Z,16.10
2022-12-09T03:16:10.940Z,16.20
2022-12-09T03:17:11.311Z,16.70
2022-12-09T03:18:11.026Z,16.10
2022-12-09T03:19:11.220Z,18.30
2022-12-09T03:20:11.635Z,19.20
2022-12-09T03:21:10.911Z,17.50
2022-12-09T03:22:11.069Z,18.60
2022-12-09T03:23:10.997Z,19.70
2022-12-09T03:24:10.961Z,19.80
2022-12-09T03:25:11.021Z,15.30
2022-12-09T03:26:11.041Z,16.80
2022-12-09T03:27:11.019Z,19.80
2022-12-09T03:28:11.034Z,17.90
2022-12-09T03:29:10.827Z,18.40
2022-12-09T03:30:11.151Z,17.60
2022-12-09T03:31:10.771Z,17.60
2022-12-09T03:32:11.009Z,18.20
2022-12-09T03:33:10.794Z,17.40
2022-12-09T03:34:10.951Z,17.50
2022-12-09T03:35:10.742Z,19.60
2022-12-09T03:36:10.769Z,19.00
2022-12-09T03:37:10.892Z,17.20
2022-12-09T03:38:10.924Z,14.70
2022-12-09T03:39:10.686Z,17.20
2022-12-09T03:40:14.190Z,16.30
2022-12-09T03:41:10.836Z,12.60
2022-12-09T03:42:11.026Z,13.50
2022-12-09T03:43:10.957Z,15.40
2022-12-09T03:44:10.856Z,14.80
2022-12-09T03:45:10.904Z,18.60
2022-12-09T03:46:10.774Z,14.80
2022-12-09T03:47:10.685Z,18.00
2022-12-09T03:48:10.943Z,15.70
2022-12-09T03:49:10.574Z,15.90
2022-12-09T03:50:10.837Z,14.60
2022-12-09T03:51:10.586Z,15.00
2022-12-09T03:52:10.629Z,15.50
2022-12-09T03:53:10.594Z,16.50
2022-12-09T03:54:10.720Z,16.50
2022-12-09T03:55:10.645Z,16.00
2022-12-09T03:56:10.486Z,15.00
2022-12-09T03:57:14.089Z,15.50
2022-12-09T03:58:11.485Z,16.70
2022-12-09T03:59:10.625Z,17.80
2022-12-09T04:00:10.986Z,17.30
2022-12-09T04:01:10.496Z,14.70
2022-12-09T04:02:10.557Z,17.10
2022-12-09T04:03:10.857Z,16.80
2022-12-09T04:04:10.451Z,18.60
2022-12-09T04:05:10.522Z,15.80
2022-12-09T04:06:10.387Z,17.20
2022-12-09T04:07:10.368Z,16.30
2022-12-09T04:08:10.728Z,17.30
2022-12-09T04:09:10.679Z,18.40
2022-12-09T04:10:10.820Z,22.00
2022-12-09T04:11:10.630Z,18.20
2022-12-09T04:12:10.315Z,17.60
2022-12-09T04:13:10.507Z,20.40
2022-12-09T04:14:15.273Z,17.50
2022-12-09T04:15:11.297Z,18.80
2022-12-09T04:16:10.308Z,16.10
2022-12-09T04:17:10.447Z,18.80
2022-12-09T04:18:10.697Z,19.30
2022-12-09T04:19:10.302Z,20.70
2022-12-09T04:20:10.779Z,16.40
2022-12-09T04:21:10.489Z,17.20
2022-12-09T04:22:10.568Z,18.00
2022-12-09T04:23:10.583Z,20.30
2022-12-09T04:24:10.193Z,16.90
2022-12-09T04:25:10.354Z,21.40
2022-12-09T04:26:10.501Z,18.50
2022-12-09T04:27:10.548Z,18.60
2022-12-09T04:28:10.297Z,17.20
2022-12-09T04:29:10.153Z,20.40
2022-12-09T04:30:10.422Z,18.80
2022-12-09T04:31:10.207Z,19.70
2022-12-09T04:32:10.299Z,17.90
2022-12-09T04:33:10.116Z,16.20
2022-12-09T04:34:10.764Z,17.30
2022-12-09T04:35:10.070Z,16.30
2022-12-09T04:36:10.313Z,18.40
2022-12-09T04:37:10.049Z,16.50
2022-12-09T04:38:10.186Z,18.40
2022-12-09T04:39:10.668Z,19.60
2022-12-09T04:40:10.225Z,18.50
2022-12-09T04:41:09.987Z,16.60
2022-12-09T04:42:10.414Z,16.40
2022-12-09T04:43:10.122Z,16.80
2022-12-09T04:44:10.173Z,19.70
2022-12-09T04:45:09.993Z,19.50
2022-12-09T04:46:10.325Z,19.10
2022-12-09T04:47:09.983Z,17.80
2022-12-09T04:48:10.104Z,16.80
2022-12-09T04:49:10.140Z,19.10
2022-12-09T04:50:10.405Z,21.70
2022-12-09T04:51:09.911Z,18.40
2022-12-09T04:52:09.869Z,17.90
2022-12-09T04:53:09.882Z,16.30
2022-12-09T04:54:09.848Z,19.20
2022-12-09T04:55:09.923Z,18.60
2022-12-09T04:56:10.059Z,19.70
2022-12-09T04:57:09.888Z,22.10
2022-12-09T04:58:10.234Z,20.00
2022-12-09T04:59:09.808Z,19.80
2022-12-09T05:00:10.375Z,20.60
2022-12-09T05:01:09.934Z,19.80
2022-12-09T05:02:09.909Z,18.00
2022-12-09T05:03:10.010Z,16.00
2022-12-09T05:04:10.262Z,16.50
2022-12-09T05:05:09.900Z,19.40
2022-12-09T05:06:10.181Z,20.10
2022-12-09T05:07:09.851Z,18.20
2022-12-09T05:08:09.839Z,21.40
2022-12-09T05:09:09.950Z,19.20
2022-12-09T05:10:09.899Z,18.60
2022-12-09T05:11:10.004Z,18.00
2022-12-09T05:12:09.907Z,19.60
2022-12-09T05:13:09.844Z,20.20
2022-12-09T05:14:09.693Z,18.00
2022-12-09T05:15:09.854Z,18.90
2022-12-09T05:16:15.682Z,24.60
2022-12-09T05:17:10.918Z,20.40
2022-12-09T05:18:09.744Z,24.10
2022-12-09T05:19:09.796Z,19.00
2022-12-09T05:20:09.829Z,20.50
2022-12-09T05:21:09.803Z,22.80
2022-12-09T05:22:09.638Z,19.80
2022-12-09T05:23:10.218Z,17.40
2022-12-09T05:24:09.525Z,20.90
2022-12-09T05:25:09.609Z,19.40
2022-12-09T05:26:09.552Z,18.90
2022-12-09T05:27:09.839Z,17.10
2022-12-09T05:28:09.534Z,19.90
2022-12-09T05:29:09.548Z,19.40
2022-12-09T05:30:10.157Z,19.40
2022-12-09T05:31:09.943Z,19.70
2022-12-09T05:32:09.807Z,24.10
2022-12-09T05:33:09.486Z,21.40
2022-12-09T05:34:09.580Z,22.40
2022-12-09T05:35:09.754Z,19.00
2022-12-09T05:36:09.444Z,19.70
2022-12-09T05:37:09.556Z,19.80
2022-12-09T05:38:09.562Z,21.00
2022-12-09T05:39:09.438Z,20.40
2022-12-09T05:40:09.693Z,20.40
2022-12-09T05:41:09.370Z,20.50
2022-12-09T05:42:09.442Z,24.90
2022-12-09T05:43:09.399Z,19.90
2022-12-09T05:44:09.515Z,23.80
2022-12-09T05:45:09.578Z,20.60
2022-12-09T05:46:09.401Z,22.50
2022-12-09T05:47:09.347Z,23.10
2022-12-09T05:48:09.568Z,19.50
2022-12-09T05:49:09.538Z,19.80
2022-12-09T05:50:09.811Z,21.70
2022-12-09T05:51:09.318Z,21.70
2022-12-09T05:52:09.357Z,21.70
2022-12-09T05:53:09.506Z,19.50
2022-12-09T05:54:09.645Z,20.00
2022-12-09T05:55:09.526Z,21.90
2022-12-09T05:56:09.264Z,20.40
2022-12-09T05:57:09.332Z,19.10
2022-12-09T05:58:09.221Z,19.80
2022-12-09T05:59:09.287Z,20.10
2022-12-09T06:00:09.635Z,23.80
2022-12-09T06:01:09.515Z,21.60
2022-12-09T06:02:10.333Z,24.60
2022-12-09T06:03:09.506Z,20.10
2022-12-09T06:04:09.370Z,22.20
2022-12-09T06:05:09.468Z,21.10
2022-12-09T06:06:09.457Z,22.60
2022-12-09T06:07:09.432Z,23.90
2022-12-09T06:08:09.272Z,26.50
2022-12-09T06:09:09.344Z,24.80
2022-12-09T06:10:09.932Z,23.50
2022-12-09T06:11:09.513Z,20.30
2022-12-09T06:12:09.069Z,22.80
2022-12-09T06:13:09.362Z,22.40
2022-12-09T06:14:09.039Z,23.10
2022-12-09T06:15:10.597Z,22.10
2022-12-09T06:16:09.274Z,24.60
2022-12-09T06:17:09.065Z,23.00
2022-12-09T06:18:09.098Z,20.50
2022-12-09T06:19:09.381Z,24.40
2022-12-09T06:20:09.887Z,22.30
2022-12-09T06:21:09.358Z,21.90
2022-12-09T06:22:09.456Z,23.50
2022-12-09T06:23:09.139Z,21.80
2022-12-09T06:24:09.238Z,21.60
2022-12-09T06:25:09.858Z,23.20
2022-12-09T06:26:08.900Z,22.80
2022-12-09T06:27:09.838Z,23.90
2022-12-09T06:28:10.055Z,21.60
2022-12-09T06:29:08.846Z,22.30
2022-12-09T06:30:08.912Z,24.60
2022-12-09T06:31:08.959Z,23.40
2022-12-09T06:32:09.137Z,21.60
2022-12-09T06:33:29.142Z,23.00
2022-12-09T06:34:09.854Z,25.10
2022-12-09T06:35:09.559Z,23.20
2022-12-09T06:36:09.060Z,25.30
2022-12-09T06:37:08.799Z,23.10
2022-12-09T06:38:08.730Z,22.50
2022-12-09T06:39:11.028Z,21.80
2022-12-09T06:40:09.584Z,22.00
2022-12-09T06:41:09.287Z,23.70
2022-12-09T06:42:08.981Z,20.70
2022-12-09T06:43:08.758Z,22.00
2022-12-09T06:44:08.633Z,21.30
2022-12-09T06:45:09.522Z,24.00
2022-12-09T06:46:08.900Z,21.50
2022-12-09T06:47:08.643Z,24.30
2022-12-09T06:48:08.662Z,24.50
2022-12-09T06:49:08.780Z,21.70
2022-12-09T06:50:09.038Z,23.30
2022-12-09T06:51:08.928Z,23.10
2022-12-09T06:52:08.571Z,21.40
2022-12-09T06:53:08.940Z,22.00
2022-12-09T06:54:08.955Z,25.50
2022-12-09T06:55:08.902Z,21.40
2022-12-09T06:56:12.217Z,23.50
2022-12-09T06:57:08.533Z,23.60
2022-12-09T06:58:08.859Z,24.60
2022-12-09T06:59:08.630Z,21.90
2022-12-09T07:00:08.559Z,21.00
2022-12-09T07:01:08.834Z,24.50
2022-12-09T07:02:08.981Z,19.90
2022-12-09T07:03:08.560Z,21.20
2022-12-09T07:04:08.654Z,23.90
2022-12-09T07:05:08.892Z,22.30
2022-12-09T07:06:08.611Z,22.10
2022-12-09T07:07:08.899Z,21.30
2022-12-09T07:08:08.607Z,25.30
2022-12-09T07:09:08.781Z,22.10
2022-12-09T07:10:08.715Z,22.30
2022-12-09T07:11:08.857Z,24.30
2022-12-09T07:12:08.618Z,22.10
2022-12-09T07:13:08.585Z,19.40
2022-12-09T07:14:08.763Z,19.10
2022-12-09T07:15:08.837Z,21.90
2022-12-09T07:16:08.718Z,22.80
2022-12-09T07:17:08.518Z,22.50
2022-12-09T07:18:08.578Z,25.60
2022-12-09T07:19:08.644Z,24.10
2022-12-09T07:20:08.458Z,23.10
2022-12-09T07:21:08.677Z,23.00
2022-12-09T07:22:08.214Z,22.00
2022-12-09T07:23:08.249Z,23.10
2022-12-09T07:24:08.368Z,23.50
2022-12-09T07:25:08.864Z,22.60
2022-12-09T07:26:08.220Z,20.80
2022-12-09T07:27:10.754Z,24.50
2022-12-09T07:28:09.187Z,20.70
2022-12-09T07:29:08.140Z,23.70
2022-12-09T07:30:08.237Z,23.60
2022-12-09T07:31:08.336Z,23.20
2022-12-09T07:32:08.476Z,23.20
2022-12-09T07:33:08.504Z,21.30
2022-12-09T07:34:08.543Z,21.50
2022-12-09T07:35:08.548Z,24.80
2022-12-09T07:36:08.441Z,21.60
2022-12-09T07:37:08.450Z,26.40
2022-12-09T07:38:09.216Z,19.40
2022-12-09T07:39:08.456Z,27.80
2022-12-09T07:40:08.130Z,22.80
2022-12-09T07:41:08.264Z,24.80
2022-12-09T07:42:08.294Z,23.50
2022-12-09T07:43:08.276Z,22.80
2022-12-09T07:44:08.049Z,21.30
2022-12-09T07:45:08.217Z,22.60
2022-12-09T07:46:08.409Z,22.70
2022-12-09T07:47:08.471Z,24.90
2022-12-09T07:48:08.062Z,22.40
2022-12-09T07:49:08.366Z,23.80
2022-12-09T07:50:08.378Z,22.20
2022-12-09T07:51:08.053Z,20.50
2022-12-09T07:52:07.881Z,22.00
2022-12-09T07:53:08.092Z,20.50
2022-12-09T07:54:08.086Z,20.10
2022-12-09T07:55:08.105Z,23.90
2022-12-09T07:56:07.973Z,20.80
2022-12-09T07:57:08.059Z,20.90
2022-12-09T07:58:07.870Z,23.90
2022-12-09T07:59:07.883Z,23.10
2022-12-09T08:00:08.081Z,20.20
2022-12-09T08:01:08.201Z,21.40
2022-12-09T08:02:07.811Z,23.50
2022-12-09T08:03:08.131Z,21.40
2022-12-09T08:04:08.220Z,20.90
2022-12-09T08:05:08.632Z,23.40
2022-12-09T08:06:07.880Z,22.80
2022-12-09T08:07:08.172Z,21.20
2022-12-09T08:08:08.288Z,24.70
2022-12-09T08:09:08.230Z,24.30
2022-12-09T08:10:07.828Z,25.90
2022-12-09T08:11:08.000Z,21.10
2022-12-09T08:12:07.769Z,24.80
2022-12-09T08:13:07.915Z,25.20
2022-12-09T08:14:12.212Z,23.80
2022-12-09T08:15:09.516Z,22.80
2022-12-09T08:16:07.861Z,24.30
2022-12-09T08:17:08.086Z,23.20
2022-12-09T08:18:07.835Z,22.30
2022-12-09T08:19:07.971Z,22.00
2022-12-09T08:20:08.299Z,28.10
2022-12-09T08:21:07.645Z,24.40
2022-12-09T08:22:07.625Z,22.30
2022-12-09T08:23:07.630Z,22.30
2022-12-09T08:24:07.857Z,22.50
2022-12-09T08:25:08.346Z,25.50
2022-12-09T08:26:07.635Z,20.40
2022-12-09T08:27:07.634Z,24.70
2022-12-09T08:28:07.809Z,22.90
2022-12-09T08:29:08.139Z,22.60
2022-12-09T08:30:08.201Z,21.10
2022-12-09T08:31:08.179Z,22.30
2022-12-09T08:32:07.624Z,21.80
2022-12-09T08:33:07.503Z,19.80
2022-12-09T08:34:07.992Z,21.90
2022-12-09T08:35:07.574Z,22.90
2022-12-09T08:36:07.721Z,19.90
2022-12-09T08:37:07.452Z,21.00
2022-12-09T08:38:07.418Z,22.10
2022-12-09T08:39:07.784Z,23.60
2022-12-09T08:40:07.820Z,20.80
2022-12-09T08:41:07.419Z,31.00
2022-12-09T08:42:07.445Z,17.90
2022-12-09T08:43:07.645Z,21.10
2022-12-09T08:44:07.344Z,20.90
2022-12-09T08:45:07.382Z,23.20
2022-12-09T08:46:07.489Z,18.30
2022-12-09T08:47:07.560Z,20.00
2022-12-09T08:48:07.780Z,20.80
2022-12-09T08:49:07.506Z,18.90
2022-12-09T08:50:07.834Z,18.30
2022-12-09T08:51:07.252Z,17.00
2022-12-09T08:52:07.310Z,19.20
2022-12-09T08:53:07.339Z,16.50
2022-12-09T08:54:07.640Z,16.00
2022-12-09T08:55:07.214Z,18.70
2022-12-09T08:56:07.154Z,17.60
2022-12-09T08:57:07.186Z,19.20
2022-12-09T08:58:07.238Z,14.50
2022-12-09T08:59:07.563Z,18.80
2022-12-09T09:00:08.062Z,15.10
2022-12-09T09:01:07.326Z,14.90
2022-12-09T09:02:07.621Z,15.60
2022-12-09T09:03:07.651Z,18.00
2022-12-09T09:04:07.855Z,15.30
2022-12-09T09:05:07.480Z,19.30
2022-12-09T09:06:10.485Z,18.30
2022-12-09T09:07:07.382Z,18.70
2022-12-09T09:08:07.462Z,15.20
2022-12-09T09:09:07.180Z,13.00
2022-12-09T09:10:07.726Z,13.60
2022-12-09T09:11:07.111Z,13.30
2022-12-09T09:12:06.992Z,16.40
2022-12-09T09:13:07.013Z,15.40
2022-12-09T09:14:07.051Z,12.70
2022-12-09T09:15:07.625Z,14.30
2022-12-09T09:16:08.077Z,13.40
2022-12-09T09:17:07.164Z,14.00
2022-12-09T09:18:07.059Z,15.00
2022-12-09T09:19:07.099Z,17.30
2022-12-09T09:20:07.914Z,16.70
2022-12-09T09:21:06.946Z,13.00
2022-12-09T09:22:06.931Z,14.40
2022-12-09T09:23:06.960Z,14.40
2022-12-09T09:24:07.182Z,13.90
2022-12-09T09:25:07.291Z,13.30
2022-12-09T09:26:07.023Z,15.00
2022-12-09T09:27:07.196Z,14.50
2022-12-09T09:28:06.954Z,14.20
2022-12-09T09:29:06.770Z,13.50
2022-12-09T09:30:07.826Z,15.50
2022-12-09T09:31:07.372Z,13.40
2022-12-09T09:32:06.888Z,14.60
2022-12-09T09:33:07.005Z,13.10
2022-12-09T09:34:07.347Z,12.90
2022-12-09T09:35:07.144Z,14.30
2022-12-09T09:36:10.235Z,13.40
2022-12-09T09:37:06.863Z,12.00
2022-12-09T09:38:06.925Z,15.40
2022-12-09T09:39:06.938Z,11.70
2022-12-09T09:40:07.236Z,14.40
2022-12-09T09:41:06.899Z,12.60
2022-12-09T09:42:09.052Z,12.70
2022-12-09T09:43:07.023Z,14.50
2022-12-09T09:44:06.662Z,12.30
2022-12-09T09:45:06.837Z,11.40
2022-12-09T09:46:07.065Z,11.70
2022-12-09T09:47:07.001Z,9.70
2022-12-09T09:48:06.713Z,12.90
2022-12-09T09:49:06.856Z,15.90
2022-12-09T09:50:07.626Z,11.60
2022-12-09T09:51:06.666Z,12.40
2022-12-09T09:52:06.598Z,12.00
2022-12-09T09:53:06.673Z,9.90
2022-12-09T09:54:08.950Z,10.10
2022-12-09T09:55:06.885Z,10.40
2022-12-09T09:56:06.556Z,10.20
2022-12-09T09:57:06.990Z,11.30
2022-12-09T09:58:06.652Z,10.30
2022-12-09T09:59:06.720Z,10.90
2022-12-09T10:00:09.690Z,12.10
2022-12-09T10:01:06.655Z,12.70
2022-12-09T10:02:06.702Z,9.80
2022-12-09T10:03:06.992Z,11.10
2022-12-09T10:04:06.715Z,11.50
2022-12-09T10:05:06.913Z,12.10
2022-12-09T10:06:06.887Z,12.20
2022-12-09T10:07:08.351Z,11.80
2022-12-09T10:08:06.553Z,12.90
2022-12-09T10:09:06.748Z,12.60
2022-12-09T10:10:06.920Z,13.90
2022-12-09T10:11:06.963Z,14.90
2022-12-09T10:12:06.576Z,12.00
2022-12-09T10:13:10.796Z,11.40
2022-12-09T10:14:08.032Z,11.00
2022-12-09T10:15:06.394Z,12.20
2022-12-09T10:16:06.509Z,12.50
2022-12-09T10:17:06.617Z,12.00
2022-12-09T10:18:06.299Z,11.70
2022-12-09T10:19:09.365Z,13.70
2022-12-09T10:20:07.016Z,11.10
2022-12-09T10:21:06.671Z,9.90
2022-12-09T10:22:06.572Z,11.20
2022-12-09T10:23:06.783Z,12.50
2022-12-09T10:24:06.333Z,13.30
2022-12-09T10:25:06.445Z,12.00
2022-12-09T10:26:06.316Z,12.50
2022-12-09T10:27:06.264Z,11.30
2022-12-09T10:28:06.545Z,9.70
2022-12-09T10:29:06.377Z,10.80
2022-12-09T10:30:06.982Z,13.70
2022-12-09T10:31:06.350Z,12.10
2022-12-09T10:32:06.622Z,12.60
2022-12-09T10:33:06.576Z,13.00
2022-12-09T10:34:06.549Z,12.30
2022-12-09T10:35:06.289Z,12.00
2022-12-09T10:36:06.385Z,13.90
2022-12-09T10:37:06.459Z,12.60
2022-12-09T10:38:06.257Z,12.90
2022-12-09T10:39:06.091Z,12.50
2022-12-09T10:40:06.758Z,13.10
2022-12-09T10:41:06.478Z,12.50
2022-12-09T10:42:06.245Z,12.70
2022-12-09T10:43:06.396Z,13.70
2022-12-09T10:44:05.957Z,13.40
2022-12-09T10:45:06.135Z,11.20
2022-12-09T10:46:17.770Z,13.10
2022-12-09T10:47:11.026Z,17.60
2022-12-09T10:48:05.955Z,10.10
2022-12-09T10:49:06.034Z,9.90
2022-12-09T10:50:06.471Z,9.50
2022-12-09T10:51:06.072Z,11.80
2022-12-09T10:52:06.335Z,12.20
2022-12-09T10:53:06.122Z,11.60
2022-12-09T10:54:05.836Z,11.10
2022-12-09T10:55:06.072Z,9.90
2022-12-09T10:56:05.889Z,12.70
2022-12-09T10:57:05.872Z,11.50
2022-12-09T10:58:05.844Z,15.70
2022-12-09T10:59:06.127Z,11.90
2022-12-09T11:00:06.493Z,16.30
2022-12-09T11:01:06.167Z,10.80
2022-12-09T11:02:06.205Z,12.00
2022-12-09T11:03:06.222Z,11.00
2022-12-09T11:04:05.785Z,13.20
2022-12-09T11:05:05.983Z,10.90
2022-12-09T11:06:06.243Z,12.20
2022-12-09T11:07:06.046Z,11.90
2022-12-09T11:08:06.002Z,12.00
2022-12-09T11:09:06.332Z,12.00
2022-12-09T11:10:05.819Z,11.80
2022-12-09T11:11:06.098Z,10.50
2022-12-09T11:12:05.871Z,10.60
2022-12-09T11:13:06.258Z,10.80
2022-12-09T11:14:05.670Z,9.80
2022-12-09T11:15:05.926Z,10.70
2022-12-09T11:16:06.206Z,9.10
2022-12-09T11:17:05.717Z,11.20
2022-12-09T11:18:05.991Z,37.00
2022-12-09T11:19:05.966Z,32.00
2022-12-09T11:20:05.783Z,13.30
2022-12-09T11:21:05.935Z,14.10
2022-12-09T11:22:05.649Z,9.90
2022-12-09T11:23:05.809Z,11.00
2022-12-09T11:24:05.939Z,12.10
2022-12-09T11:25:06.096Z,9.50
2022-12-09T11:26:06.005Z,10.60
2022-12-09T11:27:05.786Z,11.40
2022-12-09T11:28:05.513Z,9.80
2022-12-09T11:29:05.465Z,11.10
2022-12-09T11:30:11.243Z,10.60
2022-12-09T11:31:29.100Z,11.10
2022-12-09T11:32:06.545Z,13.20
2022-12-09T11:33:05.470Z,10.20
2022-12-09T11:34:05.682Z,9.00
2022-12-09T11:35:05.812Z,8.00
2022-12-09T11:37:05.315Z,8.50
2022-12-09T11:38:05.295Z,8.40
2022-12-09T11:39:05.276Z,8.90
2022-12-09T11:40:05.688Z,8.50
2022-12-09T11:41:05.294Z,10.60
2022-12-09T11:42:05.279Z,10.50
2022-12-09T11:43:05.251Z,10.60
2022-12-09T11:44:05.225Z,10.10
2022-12-09T11:45:05.208Z,9.80
2022-12-09T11:46:05.226Z,10.80
2022-12-09T11:47:05.213Z,10.90
2022-12-09T11:48:31.852Z,10.60
2022-12-09T11:49:06.167Z,9.80
2022-12-09T11:50:05.818Z,7.60
2022-12-09T11:51:05.153Z,8.40
2022-12-09T11:52:05.198Z,8.60
2022-12-09T11:53:05.146Z,10.70
2022-12-09T11:54:05.111Z,9.80
2022-12-09T11:55:05.181Z,9.30
2022-12-09T11:56:05.127Z,7.30
2022-12-09T11:57:05.099Z,7.30
2022-12-09T11:58:05.060Z,8.00
2022-12-09T11:59:05.085Z,7.60
2022-12-09T12:00:05.302Z,9.40
2022-12-09T12:01:05.056Z,10.40
2022-12-09T12:02:05.081Z,9.20
2022-12-09T12:03:05.064Z,7.70
2022-12-09T12:04:05.039Z,9.40
2022-12-09T12:05:04.982Z,10.20
2022-12-09T12:06:04.986Z,10.20
2022-12-09T12:07:04.975Z,9.60
2022-12-09T12:08:05.088Z,9.90
2022-12-09T12:09:04.963Z,9.20
2022-12-09T12:10:05.065Z,8.90
2022-12-09T12:11:04.922Z,9.30
2022-12-09T12:12:04.909Z,9.40
2022-12-09T12:13:04.896Z,9.30
2022-12-09T12:14:04.909Z,9.80
2022-12-09T12:15:04.888Z,10.60
2022-12-09T12:16:04.870Z,10.40
2022-12-09T12:17:04.882Z,9.10
2022-12-09T12:18:04.842Z,10.90
2022-12-09T12:19:04.824Z,7.30
2022-12-09T12:20:05.241Z,9.30
2022-12-09T12:21:04.803Z,7.60
2022-12-09T12:22:04.797Z,9.10
2022-12-09T12:23:04.780Z,9.60
2022-12-09T12:24:04.780Z,9.30
2022-12-09T12:25:05.191Z,8.30
2022-12-09T12:26:04.770Z,8.60
2022-12-09T12:27:04.739Z,7.80
2022-12-09T12:28:04.770Z,9.50
2022-12-09T12:29:07.557Z,10.80
2022-12-09T12:30:04.948Z,7.20
2022-12-09T12:31:04.728Z,10.40
2022-12-09T12:32:04.708Z,10.70
2022-12-09T12:33:52.925Z,9.10
2022-12-09T12:34:24.222Z,11.40
2022-12-09T12:35:05.865Z,11.20
2022-12-09T12:36:04.630Z,9.70
2022-12-09T12:37:04.649Z,11.00
2022-12-09T12:38:04.602Z,12.60
2022-12-09T12:39:04.611Z,11.60
2022-12-09T12:40:04.840Z,12.40
2022-12-09T12:41:04.585Z,13.30
2022-12-09T12:42:04.559Z,13.20
2022-12-09T12:43:04.566Z,10.80
2022-12-09T12:44:04.533Z,10.80
2022-12-09T12:45:04.540Z,12.20
2022-12-09T12:46:04.598Z,11.40
2022-12-09T12:47:05.451Z,13.20
2022-12-09T12:48:04.574Z,13.20
2022-12-09T12:49:04.490Z,11.90
2022-12-09T12:50:04.734Z,12.50
2022-12-09T12:51:04.454Z,12.70
2022-12-09T12:52:04.451Z,11.90
2022-12-09T12:53:04.441Z,11.90
2022-12-09T12:54:04.483Z,12.80
2022-12-09T12:55:04.404Z,11.40